sensor_id;sensor_type;location;lat;lon;timestamp;P1;durP1;ratioP1;P2;durP2;ratioP2
52136;SDS011;38130;49.012;8.368;2022-07-15T00:02:11;6.05;;;2.83;;
52136;SDS011;38130;49.012;8.368;2022-07-15T00:04:38;12.98;;;7.43;;
52136;SDS011;38130;49.012;8.368;2022-07-15T00:07:05;18.50;;;11.45;;
52136;SDS011;38130;49.012;8.368;2022-07-15T00:09:32;4.70;;;2.80;;
52136;SDS011;38130;49.012;8.368;2022-07-15T00:12:18;6.00;;;3.03;;
52136;SDS011;38130;49.012;8.368;2022-07-15T00:14:44;4.00;;;2.80;;
52136;SDS011;38130;49.012;8.368;2022-07-15T00:17:11;8.00;;;3.47;;
52136;SDS011;38130;49.012;8.368;2022-07-15T00:19:37;9.32;;;4.40;;
52136;SDS011;38130;49.012;8.368;2022-07-15T00:22:04;5.90;;;3.00;;
52136;SDS011;38130;49.012;8.368;2022-07-15T00:24:30;5.95;;;3.40;;
52136;SDS011;38130;49.012;8.368;2022-07-15T00:26:57;6.50;;;2.90;;
52136;SDS011;38130;49.012;8.368;2022-07-15T00:29:23;8.80;;;2.78;;
52136;SDS011;38130;49.012;8.368;2022-07-15T00:31:52;6.80;;;2.75;;
52136;SDS011;38130;49.012;8.368;2022-07-15T00:34:19;8.23;;;2.95;;
52136;SDS011;38130;49.012;8.368;2022-07-15T00:36:46;4.88;;;2.80;;
52136;SDS011;38130;49.012;8.368;2022-07-15T00:39:14;7.80;;;3.05;;
52136;SDS011;38130;49.012;8.368;2022-07-15T00:41:41;4.60;;;3.00;;
52136;SDS011;38130;49.012;8.368;2022-07-15T00:44:09;5.07;;;3.28;;
52136;SDS011;38130;49.012;8.368;2022-07-15T00:46:36;8.73;;;3.17;;
52136;SDS011;38130;49.012;8.368;2022-07-15T00:49:06;7.03;;;2.58;;
52136;SDS011;38130;49.012;8.368;2022-07-15T00:51:35;5.88;;;3.53;;
52136;SDS011;38130;49.012;8.368;2022-07-15T00:54:07;5.97;;;2.83;;
52136;SDS011;38130;49.012;8.368;2022-07-15T00:56:37;5.00;;;3.30;;
52136;SDS011;38130;49.012;8.368;2022-07-15T00:59:06;8.63;;;4.47;;
52136;SDS011;38130;49.012;8.368;2022-07-15T01:01:33;6.15;;;4.30;;
52136;SDS011;38130;49.012;8.368;2022-07-15T01:04:05;5.45;;;3.22;;
52136;SDS011;38130;49.012;8.368;2022-07-15T01:06:32;5.03;;;4.53;;
52136;SDS011;38130;49.012;8.368;2022-07-15T01:08:59;8.32;;;3.88;;
52136;SDS011;38130;49.012;8.368;2022-07-15T01:11:26;7.50;;;2.95;;
52136;SDS011;38130;49.012;8.368;2022-07-15T01:13:53;5.90;;;3.33;;
52136;SDS011;38130;49.012;8.368;2022-07-15T01:16:20;5.55;;;2.90;;
52136;SDS011;38130;49.012;8.368;2022-07-15T01:18:47;8.52;;;4.43;;
52136;SDS011;38130;49.012;8.368;2022-07-15T01:21:14;6.70;;;3.15;;
52136;SDS011;38130;49.012;8.368;2022-07-15T01:23:41;5.22;;;3.10;;
52136;SDS011;38130;49.012;8.368;2022-07-15T01:26:09;7.35;;;3.63;;
52136;SDS011;38130;49.012;8.368;2022-07-15T01:28:37;5.03;;;3.22;;
52136;SDS011;38130;49.012;8.368;2022-07-15T01:31:04;9.45;;;3.05;;
52136;SDS011;38130;49.012;8.368;2022-07-15T01:33:31;9.13;;;3.58;;
52136;SDS011;38130;49.012;8.368;2022-07-15T01:35:59;7.38;;;3.17;;
52136;SDS011;38130;49.012;8.368;2022-07-15T01:38:26;8.27;;;3.20;;
52136;SDS011;38130;49.012;8.368;2022-07-15T01:40:54;6.25;;;3.30;;
52136;SDS011;38130;49.012;8.368;2022-07-15T01:43:21;7.32;;;3.30;;
52136;SDS011;38130;49.012;8.368;2022-07-15T01:45:48;6.90;;;3.72;;
52136;SDS011;38130;49.012;8.368;2022-07-15T01:48:15;5.25;;;3.30;;
52136;SDS011;38130;49.012;8.368;2022-07-15T01:51:01;6.72;;;3.72;;
52136;SDS011;38130;49.012;8.368;2022-07-15T01:53:28;8.27;;;4.05;;
52136;SDS011;38130;49.012;8.368;2022-07-15T01:55:55;7.40;;;4.05;;
52136;SDS011;38130;49.012;8.368;2022-07-15T01:58:21;5.63;;;3.25;;
52136;SDS011;38130;49.012;8.368;2022-07-15T02:00:48;5.82;;;3.20;;
52136;SDS011;38130;49.012;8.368;2022-07-15T02:03:15;7.53;;;3.20;;
52136;SDS011;38130;49.012;8.368;2022-07-15T02:05:42;6.60;;;2.83;;
52136;SDS011;38130;49.012;8.368;2022-07-15T02:08:09;8.32;;;3.00;;
52136;SDS011;38130;49.012;8.368;2022-07-15T02:10:41;5.40;;;3.55;;
52136;SDS011;38130;49.012;8.368;2022-07-15T02:13:07;7.68;;;3.80;;
52136;SDS011;38130;49.012;8.368;2022-07-15T02:15:35;10.10;;;3.33;;
52136;SDS011;38130;49.012;8.368;2022-07-15T02:18:05;6.13;;;4.10;;
52136;SDS011;38130;49.012;8.368;2022-07-15T02:20:32;5.05;;;3.28;;
52136;SDS011;38130;49.012;8.368;2022-07-15T02:23:00;5.30;;;2.97;;
52136;SDS011;38130;49.012;8.368;2022-07-15T02:25:28;5.18;;;3.42;;
52136;SDS011;38130;49.012;8.368;2022-07-15T02:27:57;7.95;;;3.45;;
52136;SDS011;38130;49.012;8.368;2022-07-15T02:30:25;6.63;;;3.03;;
52136;SDS011;38130;49.012;8.368;2022-07-15T02:32:53;5.28;;;2.90;;
52136;SDS011;38130;49.012;8.368;2022-07-15T02:35:20;9.57;;;4.20;;
52136;SDS011;38130;49.012;8.368;2022-07-15T02:37:46;7.15;;;4.13;;
52136;SDS011;38130;49.012;8.368;2022-07-15T02:40:13;8.80;;;3.63;;
52136;SDS011;38130;49.012;8.368;2022-07-15T02:42:39;5.47;;;3.78;;
52136;SDS011;38130;49.012;8.368;2022-07-15T02:45:12;7.13;;;3.50;;
52136;SDS011;38130;49.012;8.368;2022-07-15T02:47:38;5.25;;;3.55;;
52136;SDS011;38130;49.012;8.368;2022-07-15T02:50:05;7.75;;;3.65;;
52136;SDS011;38130;49.012;8.368;2022-07-15T02:52:32;9.30;;;3.90;;
52136;SDS011;38130;49.012;8.368;2022-07-15T02:54:58;8.23;;;4.25;;
52136;SDS011;38130;49.012;8.368;2022-07-15T02:57:25;7.85;;;3.13;;
52136;SDS011;38130;49.012;8.368;2022-07-15T02:59:51;4.10;;;3.28;;
52136;SDS011;38130;49.012;8.368;2022-07-15T03:02:18;5.60;;;2.97;;
52136;SDS011;38130;49.012;8.368;2022-07-15T03:04:44;6.53;;;3.47;;
52136;SDS011;38130;49.012;8.368;2022-07-15T03:07:11;6.20;;;3.53;;
52136;SDS011;38130;49.012;8.368;2022-07-15T03:09:38;6.63;;;3.33;;
52136;SDS011;38130;49.012;8.368;2022-07-15T03:12:05;8.45;;;3.22;;
52136;SDS011;38130;49.012;8.368;2022-07-15T03:14:32;13.38;;;7.03;;
52136;SDS011;38130;49.012;8.368;2022-07-15T03:16:58;6.38;;;4.25;;
52136;SDS011;38130;49.012;8.368;2022-07-15T03:19:25;18.23;;;11.30;;
52136;SDS011;38130;49.012;8.368;2022-07-15T03:21:51;12.70;;;7.10;;
52136;SDS011;38130;49.012;8.368;2022-07-15T03:24:18;7.38;;;4.63;;
52136;SDS011;38130;49.012;8.368;2022-07-15T03:26:44;9.52;;;4.03;;
52136;SDS011;38130;49.012;8.368;2022-07-15T03:29:11;6.80;;;4.25;;
52136;SDS011;38130;49.012;8.368;2022-07-15T03:31:40;9.50;;;5.88;;
52136;SDS011;38130;49.012;8.368;2022-07-15T03:34:06;20.17;;;11.05;;
52136;SDS011;38130;49.012;8.368;2022-07-15T03:36:33;15.43;;;9.10;;
52136;SDS011;38130;49.012;8.368;2022-07-15T03:38:59;9.63;;;4.55;;
52136;SDS011;38130;49.012;8.368;2022-07-15T03:41:26;13.38;;;7.90;;
52136;SDS011;38130;49.012;8.368;2022-07-15T03:43:52;11.13;;;6.43;;
52136;SDS011;38130;49.012;8.368;2022-07-15T03:46:19;7.15;;;4.32;;
52136;SDS011;38130;49.012;8.368;2022-07-15T03:48:45;9.10;;;5.93;;
52136;SDS011;38130;49.012;8.368;2022-07-15T03:51:12;13.05;;;6.20;;
52136;SDS011;38130;49.012;8.368;2022-07-15T03:53:39;9.23;;;5.72;;
52136;SDS011;38130;49.012;8.368;2022-07-15T03:56:06;7.85;;;4.18;;
52136;SDS011;38130;49.012;8.368;2022-07-15T03:58:33;6.97;;;4.53;;
52136;SDS011;38130;49.012;8.368;2022-07-15T04:01:00;6.65;;;4.50;;
52136;SDS011;38130;49.012;8.368;2022-07-15T04:03:26;11.18;;;5.93;;
52136;SDS011;38130;49.012;8.368;2022-07-15T04:05:53;7.25;;;4.28;;
52136;SDS011;38130;49.012;8.368;2022-07-15T04:08:20;6.57;;;4.47;;
52136;SDS011;38130;49.012;8.368;2022-07-15T04:10:46;8.48;;;4.40;;
52136;SDS011;38130;49.012;8.368;2022-07-15T04:13:13;8.15;;;4.28;;
52136;SDS011;38130;49.012;8.368;2022-07-15T04:15:39;10.02;;;4.93;;
52136;SDS011;38130;49.012;8.368;2022-07-15T04:18:06;8.13;;;4.85;;
52136;SDS011;38130;49.012;8.368;2022-07-15T04:20:32;9.63;;;4.85;;
52136;SDS011;38130;49.012;8.368;2022-07-15T04:22:59;10.38;;;4.93;;
52136;SDS011;38130;49.012;8.368;2022-07-15T04:25:25;8.43;;;6.05;;
52136;SDS011;38130;49.012;8.368;2022-07-15T04:27:52;7.65;;;5.20;;
52136;SDS011;38130;49.012;8.368;2022-07-15T04:30:18;14.35;;;5.93;;
52136;SDS011;38130;49.012;8.368;2022-07-15T04:32:45;11.43;;;5.05;;
52136;SDS011;38130;49.012;8.368;2022-07-15T04:35:11;9.48;;;4.18;;
52136;SDS011;38130;49.012;8.368;2022-07-15T04:37:38;6.20;;;5.20;;
52136;SDS011;38130;49.012;8.368;2022-07-15T04:40:05;10.07;;;5.75;;
52136;SDS011;38130;49.012;8.368;2022-07-15T04:42:35;5.97;;;3.97;;
52136;SDS011;38130;49.012;8.368;2022-07-15T04:45:02;14.20;;;5.50;;
52136;SDS011;38130;49.012;8.368;2022-07-15T04:47:29;8.80;;;4.28;;
52136;SDS011;38130;49.012;8.368;2022-07-15T04:49:55;15.65;;;6.80;;
52136;SDS011;38130;49.012;8.368;2022-07-15T04:52:44;5.68;;;3.40;;
52136;SDS011;38130;49.012;8.368;2022-07-15T04:55:11;8.32;;;4.53;;
52136;SDS011;38130;49.012;8.368;2022-07-15T04:57:39;14.45;;;4.32;;
52136;SDS011;38130;49.012;8.368;2022-07-15T05:00:06;5.22;;;3.70;;
52136;SDS011;38130;49.012;8.368;2022-07-15T05:02:33;8.60;;;4.05;;
52136;SDS011;38130;49.012;8.368;2022-07-15T05:05:00;8.82;;;4.50;;
52136;SDS011;38130;49.012;8.368;2022-07-15T05:07:27;8.68;;;4.75;;
52136;SDS011;38130;49.012;8.368;2022-07-15T05:09:53;10.93;;;4.22;;
52136;SDS011;38130;49.012;8.368;2022-07-15T05:12:20;10.85;;;3.38;;
52136;SDS011;38130;49.012;8.368;2022-07-15T05:14:46;11.43;;;5.45;;
52136;SDS011;38130;49.012;8.368;2022-07-15T05:17:13;6.30;;;3.95;;
52136;SDS011;38130;49.012;8.368;2022-07-15T05:19:39;8.02;;;5.15;;
52136;SDS011;38130;49.012;8.368;2022-07-15T05:22:06;8.15;;;4.30;;
52136;SDS011;38130;49.012;8.368;2022-07-15T05:24:32;5.88;;;4.30;;
52136;SDS011;38130;49.012;8.368;2022-07-15T05:26:59;8.73;;;5.18;;
52136;SDS011;38130;49.012;8.368;2022-07-15T05:29:26;7.93;;;4.22;;
52136;SDS011;38130;49.012;8.368;2022-07-15T05:31:52;9.45;;;4.85;;
52136;SDS011;38130;49.012;8.368;2022-07-15T05:34:19;9.82;;;4.65;;
52136;SDS011;38130;49.012;8.368;2022-07-15T05:36:45;12.32;;;4.50;;
52136;SDS011;38130;49.012;8.368;2022-07-15T05:39:12;7.32;;;3.95;;
52136;SDS011;38130;49.012;8.368;2022-07-15T05:41:38;9.45;;;3.95;;
52136;SDS011;38130;49.012;8.368;2022-07-15T05:46:39;7.88;;;4.22;;
52136;SDS011;38130;49.012;8.368;2022-07-15T05:49:05;5.28;;;3.67;;
52136;SDS011;38130;49.012;8.368;2022-07-15T05:51:32;11.55;;;3.75;;
52136;SDS011;38130;49.012;8.368;2022-07-15T05:54:00;7.80;;;4.05;;
52136;SDS011;38130;49.012;8.368;2022-07-15T05:56:26;6.53;;;3.40;;
52136;SDS011;38130;49.012;8.368;2022-07-15T05:58:53;5.05;;;2.95;;
52136;SDS011;38130;49.012;8.368;2022-07-15T06:01:20;7.55;;;4.75;;
52136;SDS011;38130;49.012;8.368;2022-07-15T06:03:47;13.98;;;3.67;;
52136;SDS011;38130;49.012;8.368;2022-07-15T06:06:14;12.18;;;5.10;;
52136;SDS011;38130;49.012;8.368;2022-07-15T06:08:40;7.75;;;3.33;;
52136;SDS011;38130;49.012;8.368;2022-07-15T06:11:10;5.53;;;3.03;;
52136;SDS011;38130;49.012;8.368;2022-07-15T06:13:38;6.72;;;3.70;;
52136;SDS011;38130;49.012;8.368;2022-07-15T06:16:05;6.32;;;3.40;;
52136;SDS011;38130;49.012;8.368;2022-07-15T06:18:33;7.38;;;2.78;;
52136;SDS011;38130;49.012;8.368;2022-07-15T06:20:59;7.10;;;3.30;;
52136;SDS011;38130;49.012;8.368;2022-07-15T06:23:26;7.03;;;3.33;;
52136;SDS011;38130;49.012;8.368;2022-07-15T06:25:52;9.52;;;3.40;;
52136;SDS011;38130;49.012;8.368;2022-07-15T06:28:22;6.65;;;3.15;;
52136;SDS011;38130;49.012;8.368;2022-07-15T06:30:48;9.95;;;2.67;;
52136;SDS011;38130;49.012;8.368;2022-07-15T06:33:15;6.85;;;2.70;;
52136;SDS011;38130;49.012;8.368;2022-07-15T06:35:41;6.65;;;3.20;;
52136;SDS011;38130;49.012;8.368;2022-07-15T06:38:10;6.13;;;2.95;;
52136;SDS011;38130;49.012;8.368;2022-07-15T06:40:37;6.18;;;3.10;;
52136;SDS011;38130;49.012;8.368;2022-07-15T06:43:03;8.07;;;3.13;;
52136;SDS011;38130;49.012;8.368;2022-07-15T06:45:30;7.47;;;2.63;;
52136;SDS011;38130;49.012;8.368;2022-07-15T06:47:57;5.43;;;2.80;;
52136;SDS011;38130;49.012;8.368;2022-07-15T06:50:24;5.13;;;3.58;;
52136;SDS011;38130;49.012;8.368;2022-07-15T06:52:50;5.45;;;2.75;;
52136;SDS011;38130;49.012;8.368;2022-07-15T06:55:17;7.85;;;3.08;;
52136;SDS011;38130;49.012;8.368;2022-07-15T06:57:44;6.20;;;2.92;;
52136;SDS011;38130;49.012;8.368;2022-07-15T07:00:11;4.85;;;2.78;;
52136;SDS011;38130;49.012;8.368;2022-07-15T07:02:38;5.45;;;2.75;;
52136;SDS011;38130;49.012;8.368;2022-07-15T07:05:12;3.80;;;2.53;;
52136;SDS011;38130;49.012;8.368;2022-07-15T07:07:39;5.78;;;2.58;;
52136;SDS011;38130;49.012;8.368;2022-07-15T07:10:06;5.63;;;2.72;;
52136;SDS011;38130;49.012;8.368;2022-07-15T07:12:33;11.35;;;2.45;;
52136;SDS011;38130;49.012;8.368;2022-07-15T07:14:59;5.35;;;2.35;;
52136;SDS011;38130;49.012;8.368;2022-07-15T07:17:28;9.80;;;2.55;;
52136;SDS011;38130;49.012;8.368;2022-07-15T07:19:55;5.80;;;2.53;;
52136;SDS011;38130;49.012;8.368;2022-07-15T07:22:22;4.60;;;2.13;;
52136;SDS011;38130;49.012;8.368;2022-07-15T07:24:48;4.38;;;2.17;;
52136;SDS011;38130;49.012;8.368;2022-07-15T07:27:15;4.82;;;2.33;;
52136;SDS011;38130;49.012;8.368;2022-07-15T07:29:41;7.68;;;3.20;;
52136;SDS011;38130;49.012;8.368;2022-07-15T07:32:08;4.40;;;2.28;;
52136;SDS011;38130;49.012;8.368;2022-07-15T07:34:34;6.15;;;2.03;;
52136;SDS011;38130;49.012;8.368;2022-07-15T07:37:01;3.22;;;2.45;;
52136;SDS011;38130;49.012;8.368;2022-07-15T07:39:27;3.97;;;2.35;;
52136;SDS011;38130;49.012;8.368;2022-07-15T07:41:54;5.78;;;2.40;;
52136;SDS011;38130;49.012;8.368;2022-07-15T07:44:20;4.40;;;2.17;;
52136;SDS011;38130;49.012;8.368;2022-07-15T07:46:47;5.45;;;2.30;;
52136;SDS011;38130;49.012;8.368;2022-07-15T07:49:14;7.90;;;2.30;;
52136;SDS011;38130;49.012;8.368;2022-07-15T07:52:00;8.05;;;2.35;;
52136;SDS011;38130;49.012;8.368;2022-07-15T07:54:27;8.45;;;2.78;;
52136;SDS011;38130;49.012;8.368;2022-07-15T07:56:55;5.75;;;2.60;;
52136;SDS011;38130;49.012;8.368;2022-07-15T07:59:22;6.82;;;2.63;;
52136;SDS011;38130;49.012;8.368;2022-07-15T08:01:48;6.53;;;2.22;;
52136;SDS011;38130;49.012;8.368;2022-07-15T08:04:16;7.13;;;2.28;;
52136;SDS011;38130;49.012;8.368;2022-07-15T08:06:42;6.38;;;2.10;;
52136;SDS011;38130;49.012;8.368;2022-07-15T08:09:09;8.60;;;2.22;;
52136;SDS011;38130;49.012;8.368;2022-07-15T08:11:35;5.72;;;2.20;;
52136;SDS011;38130;49.012;8.368;2022-07-15T08:14:02;6.05;;;2.33;;
52136;SDS011;38130;49.012;8.368;2022-07-15T08:16:28;7.28;;;2.45;;
52136;SDS011;38130;49.012;8.368;2022-07-15T08:18:55;4.45;;;1.80;;
52136;SDS011;38130;49.012;8.368;2022-07-15T08:21:22;5.10;;;2.20;;
52136;SDS011;38130;49.012;8.368;2022-07-15T08:23:48;4.82;;;2.00;;
52136;SDS011;38130;49.012;8.368;2022-07-15T08:26:16;7.35;;;2.15;;
52136;SDS011;38130;49.012;8.368;2022-07-15T08:28:50;4.15;;;2.45;;
52136;SDS011;38130;49.012;8.368;2022-07-15T08:31:30;5.63;;;2.30;;
52136;SDS011;38130;49.012;8.368;2022-07-15T08:33:58;7.28;;;2.22;;
52136;SDS011;38130;49.012;8.368;2022-07-15T08:36:25;18.13;;;1.92;;
52136;SDS011;38130;49.012;8.368;2022-07-15T08:38:51;3.97;;;1.83;;
52136;SDS011;38130;49.012;8.368;2022-07-15T08:41:18;3.30;;;1.83;;
52136;SDS011;38130;49.012;8.368;2022-07-15T08:43:45;4.50;;;2.00;;
52136;SDS011;38130;49.012;8.368;2022-07-15T08:46:12;5.63;;;1.98;;
52136;SDS011;38130;49.012;8.368;2022-07-15T08:48:41;5.50;;;1.98;;
52136;SDS011;38130;49.012;8.368;2022-07-15T08:51:15;5.45;;;4.03;;
52136;SDS011;38130;49.012;8.368;2022-07-15T08:53:47;6.68;;;2.42;;
52136;SDS011;38130;49.012;8.368;2022-07-15T08:56:16;7.03;;;2.45;;
52136;SDS011;38130;49.012;8.368;2022-07-15T08:58:44;6.32;;;2.33;;
52136;SDS011;38130;49.012;8.368;2022-07-15T09:01:28;8.27;;;2.10;;
52136;SDS011;38130;49.012;8.368;2022-07-15T09:03:55;7.32;;;1.90;;
52136;SDS011;38130;49.012;8.368;2022-07-15T09:06:35;7.07;;;2.00;;
52136;SDS011;38130;49.012;8.368;2022-07-15T09:09:49;6.78;;;1.75;;
52136;SDS011;38130;49.012;8.368;2022-07-15T09:11:56;3.95;;;2.22;;
52136;SDS011;38130;49.012;8.368;2022-07-15T09:14:40;5.88;;;2.38;;
52136;SDS011;38130;49.012;8.368;2022-07-15T09:22:21;3.85;;;2.28;;
52136;SDS011;38130;49.012;8.368;2022-07-15T09:25:02;4.18;;;2.10;;
52136;SDS011;38130;49.012;8.368;2022-07-15T09:27:30;4.20;;;2.30;;
52136;SDS011;38130;49.012;8.368;2022-07-15T09:30:13;5.13;;;1.95;;
52136;SDS011;38130;49.012;8.368;2022-07-15T09:33:12;4.63;;;2.10;;
52136;SDS011;38130;49.012;8.368;2022-07-15T09:44:18;4.38;;;2.25;;
52136;SDS011;38130;49.012;8.368;2022-07-15T09:54:20;5.35;;;1.70;;
52136;SDS011;38130;49.012;8.368;2022-07-15T09:56:48;4.50;;;1.73;;
52136;SDS011;38130;49.012;8.368;2022-07-15T09:59:16;3.92;;;1.80;;
52136;SDS011;38130;49.012;8.368;2022-07-15T10:01:44;3.45;;;1.92;;
52136;SDS011;38130;49.012;8.368;2022-07-15T10:04:14;3.75;;;1.70;;
52136;SDS011;38130;49.012;8.368;2022-07-15T10:06:42;8.45;;;2.15;;
52136;SDS011;38130;49.012;8.368;2022-07-15T10:09:09;4.88;;;2.15;;
52136;SDS011;38130;49.012;8.368;2022-07-15T10:11:36;6.95;;;1.90;;
52136;SDS011;38130;49.012;8.368;2022-07-15T10:14:20;6.72;;;1.80;;
52136;SDS011;38130;49.012;8.368;2022-07-15T10:17:15;7.82;;;2.38;;
52136;SDS011;38130;49.012;8.368;2022-07-15T10:28:20;4.03;;;2.08;;
52136;SDS011;38130;49.012;8.368;2022-07-15T10:31:11;6.95;;;1.67;;
52136;SDS011;38130;49.012;8.368;2022-07-15T10:34:23;4.82;;;2.45;;
52136;SDS011;38130;49.012;8.368;2022-07-15T10:39:16;5.60;;;1.63;;
52136;SDS011;38130;49.012;8.368;2022-07-15T10:44:18;3.78;;;2.20;;
52136;SDS011;38130;49.012;8.368;2022-07-15T10:46:46;5.72;;;2.20;;
52136;SDS011;38130;49.012;8.368;2022-07-15T10:54:10;4.97;;;2.10;;
52136;SDS011;38130;49.012;8.368;2022-07-15T10:56:57;3.67;;;2.05;;
52136;SDS011;38130;49.012;8.368;2022-07-15T10:59:24;7.43;;;1.98;;
52136;SDS011;38130;49.012;8.368;2022-07-15T11:04:26;5.85;;;1.55;;
52136;SDS011;38130;49.012;8.368;2022-07-15T11:12:10;2.15;;;1.52;;
52136;SDS011;38130;49.012;8.368;2022-07-15T11:14:44;3.72;;;1.70;;
52136;SDS011;38130;49.012;8.368;2022-07-15T11:17:14;5.88;;;1.90;;
52136;SDS011;38130;49.012;8.368;2022-07-15T11:19:46;4.93;;;2.13;;
52136;SDS011;38130;49.012;8.368;2022-07-15T11:22:18;4.13;;;2.13;;
52136;SDS011;38130;49.012;8.368;2022-07-15T11:24:46;6.30;;;2.42;;
52136;SDS011;38130;49.012;8.368;2022-07-15T11:27:13;3.22;;;1.90;;
52136;SDS011;38130;49.012;8.368;2022-07-15T11:29:59;3.70;;;1.63;;
52136;SDS011;38130;49.012;8.368;2022-07-15T11:32:30;5.60;;;2.10;;
52136;SDS011;38130;49.012;8.368;2022-07-15T11:34:58;4.22;;;1.83;;
52136;SDS011;38130;49.012;8.368;2022-07-15T11:40:07;3.35;;;1.70;;
52136;SDS011;38130;49.012;8.368;2022-07-15T11:42:35;5.68;;;2.13;;
52136;SDS011;38130;49.012;8.368;2022-07-15T11:45:32;4.35;;;2.13;;
52136;SDS011;38130;49.012;8.368;2022-07-15T11:48:01;9.68;;;2.38;;
52136;SDS011;38130;49.012;8.368;2022-07-15T11:50:27;2.95;;;1.67;;
52136;SDS011;38130;49.012;8.368;2022-07-15T11:53:00;3.63;;;2.20;;
52136;SDS011;38130;49.012;8.368;2022-07-15T11:55:26;3.40;;;1.80;;
52136;SDS011;38130;49.012;8.368;2022-07-15T11:57:53;3.85;;;2.10;;
52136;SDS011;38130;49.012;8.368;2022-07-15T12:00:27;4.25;;;1.95;;
52136;SDS011;38130;49.012;8.368;2022-07-15T12:03:05;5.20;;;2.20;;
52136;SDS011;38130;49.012;8.368;2022-07-15T12:05:33;6.75;;;2.58;;
52136;SDS011;38130;49.012;8.368;2022-07-15T12:08:00;5.07;;;1.92;;
52136;SDS011;38130;49.012;8.368;2022-07-15T12:10:33;5.57;;;2.22;;
52136;SDS011;38130;49.012;8.368;2022-07-15T12:13:01;3.72;;;1.80;;
52136;SDS011;38130;49.012;8.368;2022-07-15T12:15:28;5.22;;;1.98;;
52136;SDS011;38130;49.012;8.368;2022-07-15T12:17:55;2.53;;;1.70;;
52136;SDS011;38130;49.012;8.368;2022-07-15T12:20:23;4.43;;;1.92;;
52136;SDS011;38130;49.012;8.368;2022-07-15T12:23:06;4.22;;;1.70;;
52136;SDS011;38130;49.012;8.368;2022-07-15T12:25:34;4.40;;;2.30;;
52136;SDS011;38130;49.012;8.368;2022-07-15T12:28:01;3.70;;;1.75;;
52136;SDS011;38130;49.012;8.368;2022-07-15T12:30:34;4.75;;;1.90;;
52136;SDS011;38130;49.012;8.368;2022-07-15T12:33:17;5.53;;;1.92;;
52136;SDS011;38130;49.012;8.368;2022-07-15T12:35:45;4.38;;;2.35;;
52136;SDS011;38130;49.012;8.368;2022-07-15T12:38:28;5.00;;;2.17;;
52136;SDS011;38130;49.012;8.368;2022-07-15T12:41:06;3.72;;;1.80;;
52136;SDS011;38130;49.012;8.368;2022-07-15T12:43:47;8.35;;;1.95;;
52136;SDS011;38130;49.012;8.368;2022-07-15T12:46:15;6.20;;;1.92;;
52136;SDS011;38130;49.012;8.368;2022-07-15T12:48:44;6.40;;;2.05;;
52136;SDS011;38130;49.012;8.368;2022-07-15T12:51:14;2.45;;;1.70;;
52136;SDS011;38130;49.012;8.368;2022-07-15T12:53:41;4.28;;;1.90;;
52136;SDS011;38130;49.012;8.368;2022-07-15T12:56:08;2.67;;;1.67;;
52136;SDS011;38130;49.012;8.368;2022-07-15T12:58:35;5.35;;;2.55;;
52136;SDS011;38130;49.012;8.368;2022-07-15T13:01:12;5.68;;;2.17;;
52136;SDS011;38130;49.012;8.368;2022-07-15T13:03:41;4.07;;;1.80;;
52136;SDS011;38130;49.012;8.368;2022-07-15T13:06:08;3.60;;;2.10;;
52136;SDS011;38130;49.012;8.368;2022-07-15T13:08:38;3.38;;;2.03;;
52136;SDS011;38130;49.012;8.368;2022-07-15T13:11:06;3.45;;;1.90;;
52136;SDS011;38130;49.012;8.368;2022-07-15T13:13:35;7.03;;;2.20;;
52136;SDS011;38130;49.012;8.368;2022-07-15T13:16:03;6.05;;;2.35;;
52136;SDS011;38130;49.012;8.368;2022-07-15T13:18:32;6.32;;;2.38;;
52136;SDS011;38130;49.012;8.368;2022-07-15T13:21:00;4.40;;;2.15;;
52136;SDS011;38130;49.012;8.368;2022-07-15T13:23:26;4.20;;;2.22;;
52136;SDS011;38130;49.012;8.368;2022-07-15T13:25:53;3.83;;;2.70;;
52136;SDS011;38130;49.012;8.368;2022-07-15T13:28:21;3.38;;;1.80;;
52136;SDS011;38130;49.012;8.368;2022-07-15T13:30:48;5.40;;;2.05;;
52136;SDS011;38130;49.012;8.368;2022-07-15T13:33:16;4.63;;;2.22;;
52136;SDS011;38130;49.012;8.368;2022-07-15T13:35:43;4.95;;;2.05;;
52136;SDS011;38130;49.012;8.368;2022-07-15T13:38:09;4.45;;;1.90;;
52136;SDS011;38130;49.012;8.368;2022-07-15T13:40:36;4.07;;;2.10;;
52136;SDS011;38130;49.012;8.368;2022-07-15T13:43:02;4.03;;;2.08;;
52136;SDS011;38130;49.012;8.368;2022-07-15T13:45:29;4.03;;;1.98;;
52136;SDS011;38130;49.012;8.368;2022-07-15T13:47:56;4.88;;;2.25;;
52136;SDS011;38130;49.012;8.368;2022-07-15T13:50:22;2.70;;;1.83;;
52136;SDS011;38130;49.012;8.368;2022-07-15T13:53:08;3.20;;;1.67;;
52136;SDS011;38130;49.012;8.368;2022-07-15T13:55:34;7.45;;;1.95;;
52136;SDS011;38130;49.012;8.368;2022-07-15T13:58:01;4.93;;;2.10;;
52136;SDS011;38130;49.012;8.368;2022-07-15T14:00:28;2.40;;;1.80;;
52136;SDS011;38130;49.012;8.368;2022-07-15T14:02:55;4.85;;;2.08;;
52136;SDS011;38130;49.012;8.368;2022-07-15T14:05:22;5.93;;;1.95;;
52136;SDS011;38130;49.012;8.368;2022-07-15T14:07:49;6.50;;;2.53;;
52136;SDS011;38130;49.012;8.368;2022-07-15T14:10:15;3.33;;;2.15;;
52136;SDS011;38130;49.012;8.368;2022-07-15T14:12:42;3.95;;;2.50;;
52136;SDS011;38130;49.012;8.368;2022-07-15T14:15:09;8.85;;;2.50;;
52136;SDS011;38130;49.012;8.368;2022-07-15T14:17:37;4.07;;;2.22;;
52136;SDS011;38130;49.012;8.368;2022-07-15T14:20:03;4.03;;;1.90;;
52136;SDS011;38130;49.012;8.368;2022-07-15T14:22:30;5.40;;;2.03;;
52136;SDS011;38130;49.012;8.368;2022-07-15T14:24:58;5.50;;;2.05;;
52136;SDS011;38130;49.012;8.368;2022-07-15T14:27:26;3.10;;;1.88;;
52136;SDS011;38130;49.012;8.368;2022-07-15T14:29:53;4.95;;;2.53;;
52136;SDS011;38130;49.012;8.368;2022-07-15T14:32:28;7.28;;;2.20;;
52136;SDS011;38130;49.012;8.368;2022-07-15T14:34:59;2.15;;;1.80;;
52136;SDS011;38130;49.012;8.368;2022-07-15T14:37:26;6.13;;;2.45;;
52136;SDS011;38130;49.012;8.368;2022-07-15T14:39:59;4.38;;;1.83;;
52136;SDS011;38130;49.012;8.368;2022-07-15T14:42:26;4.80;;;2.30;;
52136;SDS011;38130;49.012;8.368;2022-07-15T14:44:52;9.85;;;4.47;;
52136;SDS011;38130;49.012;8.368;2022-07-15T14:47:19;18.67;;;11.95;;
52136;SDS011;38130;49.012;8.368;2022-07-15T14:49:45;5.80;;;2.60;;
52136;SDS011;38130;49.012;8.368;2022-07-15T14:52:12;5.22;;;2.65;;
52136;SDS011;38130;49.012;8.368;2022-07-15T14:54:39;5.82;;;2.53;;
52136;SDS011;38130;49.012;8.368;2022-07-15T14:57:05;3.80;;;2.15;;
52136;SDS011;38130;49.012;8.368;2022-07-15T14:59:32;2.17;;;1.95;;
52136;SDS011;38130;49.012;8.368;2022-07-15T15:02:04;3.22;;;1.90;;
52136;SDS011;38130;49.012;8.368;2022-07-15T15:04:32;4.35;;;2.40;;
52136;SDS011;38130;49.012;8.368;2022-07-15T15:07:01;4.90;;;2.20;;
52136;SDS011;38130;49.012;8.368;2022-07-15T15:09:28;6.03;;;2.15;;
52136;SDS011;38130;49.012;8.368;2022-07-15T15:11:55;5.25;;;2.63;;
52136;SDS011;38130;49.012;8.368;2022-07-15T15:14:21;3.67;;;1.80;;
52136;SDS011;38130;49.012;8.368;2022-07-15T15:16:48;3.95;;;2.20;;
52136;SDS011;38130;49.012;8.368;2022-07-15T15:19:34;4.15;;;1.92;;
52136;SDS011;38130;49.012;8.368;2022-07-15T15:22:01;4.55;;;2.42;;
52136;SDS011;38130;49.012;8.368;2022-07-15T15:24:28;2.88;;;1.88;;
52136;SDS011;38130;49.012;8.368;2022-07-15T15:26:57;5.40;;;2.67;;
52136;SDS011;38130;49.012;8.368;2022-07-15T15:29:24;4.65;;;2.75;;
52136;SDS011;38130;49.012;8.368;2022-07-15T15:31:52;3.85;;;2.10;;
52136;SDS011;38130;49.012;8.368;2022-07-15T15:34:19;2.85;;;2.03;;
52136;SDS011;38130;49.012;8.368;2022-07-15T15:36:46;2.72;;;2.03;;
52136;SDS011;38130;49.012;8.368;2022-07-15T15:39:14;6.78;;;2.20;;
52136;SDS011;38130;49.012;8.368;2022-07-15T15:41:41;4.65;;;2.30;;
52136;SDS011;38130;49.012;8.368;2022-07-15T15:44:08;4.38;;;2.03;;
52136;SDS011;38130;49.012;8.368;2022-07-15T15:46:34;4.10;;;2.55;;
52136;SDS011;38130;49.012;8.368;2022-07-15T15:49:01;10.18;;;2.40;;